Time;durP1;ratioP1;P1;durP2;ratioP2;P2;SDS_P1;SDS_P2;PMS_P1;PMS_P2;Temp;Humidity;BMP_temperature;BMP_pressure;BME280_temperature;BME280_humidity;BME280_pressure;Samples;Min_cycle;Max_cycle;Signal;HPM_P1;HPM_P2
2023/12/11 00:00:46;;;;;;;36.15;8.13;;;10.60;99.90;;;;;;5117635;28;20519;-60
2023/12/11 00:03:11;;;;;;;32.10;7.40;;;10.60;99.90;;;;;;5117726;28;20179;-60
2023/12/11 00:05:41;;;;;;;31.73;7.63;;;10.70;99.90;;;;;;5117584;28;20544;-59
2023/12/11 00:08:07;;;;;;;32.25;8.43;;;10.60;99.90;;;;;;5117453;28;20201;-60
2023/12/11 00:10:33;;;;;;;25.80;6.97;;;10.70;99.90;;;;;;5117752;28;20649;-59
2023/12/11 00:12:58;;;;;;;36.78;7.93;;;10.70;99.90;;;;;;5117448;28;20206;-60
2023/12/11 00:15:24;;;;;;;31.58;8.10;;;10.60;99.90;;;;;;5117145;28;20571;-60
2023/12/11 00:17:50;;;;;;;35.70;7.78;;;10.60;99.90;;;;;;5116124;28;20523;-59
2023/12/11 00:20:15;;;;;;;34.15;7.28;;;10.60;99.90;;;;;;5116022;28;20210;-59
2023/12/11 00:22:41;;;;;;;33.50;7.40;;;10.60;99.90;;;;;;5117343;28;20243;-60
2023/12/11 00:25:07;;;;;;;34.80;7.70;;;10.70;99.90;;;;;;5117258;28;20227;-60
2023/12/11 00:27:33;;;;;;;38.85;8.13;;;10.70;99.90;;;;;;5117139;28;20208;-60
2023/12/11 00:29:59;;;;;;;34.72;8.52;;;10.70;99.90;;;;;;5117252;28;20283;-60
2023/12/11 00:32:25;;;;;;;29.67;7.35;;;10.80;99.90;;;;;;5116766;28;20176;-60
2023/12/11 00:34:50;;;;;;;28.30;7.30;;;10.80;99.90;;;;;;5117049;28;20648;-60
2023/12/11 00:37:17;;;;;;;31.83;8.50;;;10.70;99.90;;;;;;5116967;28;20178;-60
2023/12/11 00:39:43;;;;;;;39.60;9.55;;;10.70;99.90;;;;;;5116884;28;20229;-60
2023/12/11 00:42:08;;;;;;;30.10;8.27;;;10.70;99.90;;;;;;5116963;28;20556;-60
2023/12/11 00:44:37;;;;;;;29.17;8.30;;;10.70;99.90;;;;;;5116826;28;20252;-60
2023/12/11 00:47:04;;;;;;;29.27;7.40;;;10.60;99.90;;;;;;5116726;28;20189;-60
2023/12/11 00:49:30;;;;;;;28.45;7.20;;;10.60;99.90;;;;;;5116710;28;20272;-59
2023/12/11 00:51:56;;;;;;;35.30;7.60;;;10.60;99.90;;;;;;5116736;28;20173;-60
2023/12/11 00:54:21;;;;;;;33.78;7.90;;;10.60;99.90;;;;;;5116669;28;20251;-60
2023/12/11 00:56:47;;;;;;;25.33;6.38;;;10.50;99.90;;;;;;5116322;28;20258;-60
2023/12/11 00:59:13;;;;;;;29.50;7.85;;;10.50;99.90;;;;;;5116577;28;20618;-60
2023/12/11 01:01:38;;;;;;;22.75;5.72;;;10.50;99.90;;;;;;5115414;28;20249;-60
2023/12/11 01:04:04;;;;;;;26.75;6.43;;;10.50;99.90;;;;;;5116493;28;20500;-60
2023/12/11 01:06:30;;;;;;;32.30;6.90;;;10.40;99.90;;;;;;5115911;28;20166;-60
2023/12/11 01:08:56;;;;;;;37.97;7.88;;;10.40;99.90;;;;;;5116384;28;20653;-60
2023/12/11 01:11:21;;;;;;;33.03;6.93;;;10.40;99.90;;;;;;5116336;28;20216;-60
2023/12/11 01:13:47;;;;;;;33.40;7.93;;;10.40;99.90;;;;;;5116044;28;20173;-60
2023/12/11 01:16:13;;;;;;;34.28;6.97;;;10.40;99.90;;;;;;5116280;28;20169;-60
2023/12/11 01:18:38;;;;;;;34.17;7.25;;;10.40;99.90;;;;;;5115911;28;20177;-60
2023/12/11 01:21:04;;;;;;;26.20;6.85;;;10.50;99.90;;;;;;5116206;28;20220;-60
2023/12/11 01:23:30;;;;;;;29.58;6.40;;;10.60;99.90;;;;;;5116253;28;20693;-60
2023/12/11 01:25:55;;;;;;;29.75;7.30;;;10.60;99.90;;;;;;5116069;28;20216;-60
2023/12/11 01:28:21;;;;;;;30.50;6.80;;;10.70;99.90;;;;;;5115932;28;20196;-60
2023/12/11 01:30:47;;;;;;;27.67;7.40;;;10.80;99.90;;;;;;5115932;28;20181;-59
2023/12/11 01:33:12;;;;;;;32.97;7.93;;;10.70;99.90;;;;;;5115916;28;20169;-60
2023/12/11 01:35:38;;;;;;;31.60;7.45;;;10.70;99.90;;;;;;5115865;28;20318;-60
2023/12/11 01:38:04;;;;;;;33.03;8.85;;;10.60;99.90;;;;;;5115796;28;20180;-60
2023/12/11 01:40:29;;;;;;;31.02;7.05;;;10.60;99.90;;;;;;5115786;28;20170;-60
2023/12/11 01:42:55;;;;;;;32.63;7.32;;;10.60;99.90;;;;;;5115737;28;20173;-60
2023/12/11 01:45:21;;;;;;;32.95;9.13;;;10.60;99.90;;;;;;5115385;28;20177;-59
2023/12/11 01:47:46;;;;;;;29.60;6.93;;;10.70;99.90;;;;;;5115560;28;20288;-60
2023/12/11 01:50:12;;;;;;;26.05;6.10;;;10.70;99.90;;;;;;5115595;28;20173;-60
2023/12/11 01:52:38;;;;;;;37.40;9.00;;;10.70;99.90;;;;;;5115532;28;20177;-59
2023/12/11 01:55:05;;;;;;;36.60;7.65;;;10.70;99.90;;;;;;5115488;28;20517;-60
2023/12/11 01:57:31;;;;;;;30.15;7.60;;;10.60;99.90;;;;;;5114200;28;20271;-60
2023/12/11 01:59:57;;;;;;;32.55;8.23;;;10.60;99.90;;;;;;5115310;28;20226;-60
2023/12/11 02:02:23;;;;;;;30.80;8.20;;;10.70;99.90;;;;;;5115365;28;20173;-59
2023/12/11 02:04:50;;;;;;;28.75;7.70;;;10.60;99.90;;;;;;5115203;28;20176;-60
2023/12/11 02:07:16;;;;;;;28.10;6.55;;;10.70;99.90;;;;;;5115214;28;20208;-60
2023/12/11 02:09:42;;;;;;;27.13;7.30;;;10.70;99.90;;;;;;5115127;28;20209;-59
2023/12/11 02:12:08;;;;;;;29.75;7.72;;;10.70;99.90;;;;;;5115461;28;20205;-59
2023/12/11 02:14:34;;;;;;;29.90;8.30;;;10.70;99.90;;;;;;5115061;28;20195;-60
2023/12/11 02:17:00;;;;;;;34.28;8.38;;;10.80;99.90;;;;;;5114942;28;20181;-60
2023/12/11 02:19:26;;;;;;;28.70;6.85;;;10.80;99.90;;;;;;5114548;28;20165;-60
2023/12/11 02:21:53;;;;;;;33.88;7.82;;;10.70;99.90;;;;;;5114862;28;20286;-60
2023/12/11 02:24:22;;;;;;;28.08;7.97;;;10.80;99.90;;;;;;5114878;28;20171;-60
2023/12/11 02:26:48;;;;;;;29.45;7.10;;;10.80;99.90;;;;;;5114829;28;20165;-60
2023/12/11 02:29:14;;;;;;;30.67;6.90;;;10.70;99.90;;;;;;5114771;28;20205;-59
2023/12/11 02:31:40;;;;;;;22.23;6.13;;;10.90;99.90;;;;;;5114816;28;20634;-60
2023/12/11 02:34:08;;;;;;;28.23;7.07;;;10.80;99.90;;;;;;5114709;28;20208;-60
2023/12/11 02:36:33;;;;;;;22.17;6.05;;;10.80;99.90;;;;;;5114716;28;20169;-60
2023/12/11 02:38:59;;;;;;;30.70;7.15;;;10.70;99.90;;;;;;5114328;28;20170;-60
2023/12/11 02:41:25;;;;;;;32.28;6.53;;;10.70;99.90;;;;;;5114617;28;20174;-60
2023/12/11 02:43:51;;;;;;;28.70;6.30;;;10.70;99.90;;;;;;5114501;28;20184;-60
2023/12/11 02:46:16;;;;;;;31.83;6.78;;;10.80;99.90;;;;;;5114514;28;20170;-60
2023/12/11 02:48:42;;;;;;;31.80;6.82;;;10.70;99.90;;;;;;5114711;28;20197;-60
2023/12/11 02:51:08;;;;;;;32.15;7.85;;;10.80;99.90;;;;;;5114193;28;20173;-60
2023/12/11 02:53:33;;;;;;;32.58;6.63;;;10.80;99.90;;;;;;5114425;28;20204;-60
2023/12/11 02:55:59;;;;;;;26.60;7.47;;;10.80;99.90;;;;;;5114362;27;20181;-59
2023/12/11 02:58:25;;;;;;;28.00;7.30;;;10.80;99.90;;;;;;5114385;28;20200;-60
2023/12/11 03:00:50;;;;;;;33.58;7.15;;;10.80;99.90;;;;;;5114247;28;20173;-59
2023/12/11 03:03:16;;;;;;;30.88;6.78;;;10.80;99.90;;;;;;5113991;28;20177;-60
2023/12/11 03:05:42;;;;;;;32.13;6.40;;;10.90;99.90;;;;;;5113890;28;20177;-59
2023/12/11 03:08:07;;;;;;;33.22;8.45;;;10.80;99.90;;;;;;5114087;28;20205;-60
2023/12/11 03:10:33;;;;;;;29.75;7.68;;;10.80;99.90;;;;;;5113834;28;20173;-60
2023/12/11 03:12:59;;;;;;;32.78;7.85;;;10.80;99.90;;;;;;5114107;28;20193;-59
2023/12/11 03:15:24;;;;;;;31.52;7.75;;;10.60;99.90;;;;;;5114107;28;20181;-59
2023/12/11 03:17:50;;;;;;;32.97;7.95;;;10.60;99.90;;;;;;5114097;28;20184;-59
2023/12/11 03:20:16;;;;;;;33.75;7.50;;;10.50;99.90;;;;;;5114084;28;20181;-60
2023/12/11 03:22:42;;;;;;;33.72;8.32;;;10.60;99.90;;;;;;5113996;28;20232;-59
2023/12/11 03:25:08;;;;;;;28.58;7.35;;;10.60;99.90;;;;;;5113700;28;20589;-59
2023/12/11 03:27:33;;;;;;;31.40;6.05;;;10.50;99.90;;;;;;5113880;28;20240;-60
2023/12/11 03:29:59;;;;;;;24.25;6.05;;;10.50;99.90;;;;;;5118028;28;20173;-60
2023/12/11 03:32:25;;;;;;;33.55;7.00;;;10.40;99.90;;;;;;5120900;28;20649;-60
2023/12/11 03:34:50;;;;;;;28.45;6.95;;;10.40;99.90;;;;;;5120787;28;20169;-60
2023/12/11 03:37:16;;;;;;;28.15;6.63;;;10.50;99.90;;;;;;5120437;28;20541;-60
2023/12/11 03:39:42;;;;;;;28.92;6.00;;;10.50;99.90;;;;;;5120727;28;20177;-60
2023/12/11 03:42:07;;;;;;;30.33;7.65;;;10.70;99.90;;;;;;5120677;28;20260;-60
2023/12/11 03:44:33;;;;;;;34.85;7.95;;;10.60;99.90;;;;;;5120650;28;20599;-60
2023/12/11 03:46:59;;;;;;;28.55;7.82;;;10.60;99.90;;;;;;5120545;28;20213;-60
2023/12/11 03:49:27;;;;;;;28.40;7.30;;;10.50;99.90;;;;;;5120632;27;20180;-59
2023/12/11 03:51:52;;;;;;;31.13;8.23;;;10.40;99.90;;;;;;5120529;28;20173;-60
2023/12/11 03:54:18;;;;;;;28.75;7.35;;;10.40;99.90;;;;;;5120569;28;20224;-60
2023/12/11 03:56:44;;;;;;;28.90;7.13;;;10.50;99.90;;;;;;5120859;28;20222;-60
2023/12/11 03:59:11;;;;;;;28.05;7.25;;;10.50;99.90;;;;;;5120596;28;20620;-59
2023/12/11 04:01:37;;;;;;;26.77;6.80;;;10.40;99.90;;;;;;5120451;28;20185;-59
2023/12/11 04:04:02;;;;;;;26.00;7.22;;;10.50;99.90;;;;;;5120474;28;20253;-59
2023/12/11 04:06:28;;;;;;;35.80;7.35;;;10.40;99.90;;;;;;5120399;28;20196;-60
2023/12/11 04:08:54;;;;;;;29.67;6.70;;;10.60;99.90;;;;;;5119149;28;20288;-60
2023/12/11 04:11:20;;;;;;;31.70;5.80;;;10.60;99.90;;;;;;5120361;28;20572;-59
2023/12/11 04:13:45;;;;;;;29.63;6.53;;;10.50;99.90;;;;;;5120389;28;20211;-59
2023/12/11 04:16:12;;;;;;;33.38;7.22;;;10.50;99.90;;;;;;5120604;28;20202;-59
2023/12/11 04:18:37;;;;;;;27.60;6.68;;;10.60;99.90;;;;;;5120334;28;20177;-60
2023/12/11 04:21:04;;;;;;;23.90;6.30;;;10.70;99.90;;;;;;5120059;28;20170;-60
2023/12/11 04:23:30;;;;;;;27.20;7.13;;;10.60;99.90;;;;;;5119797;28;20299;-59
2023/12/11 04:25:58;;;;;;;28.45;7.80;;;10.80;99.90;;;;;;5120286;28;20224;-60
2023/12/11 04:28:24;;;;;;;33.95;8.20;;;10.60;99.90;;;;;;5120164;27;20259;-61
2023/12/11 04:30:50;;;;;;;30.05;6.70;;;10.70;99.90;;;;;;5119927;27;20229;-59
2023/12/11 04:33:16;;;;;;;28.30;5.75;;;10.70;99.90;;;;;;5120219;28;20180;-60
2023/12/11 04:35:41;;;;;;;30.30;7.90;;;10.70;99.90;;;;;;5119868;28;20181;-60
2023/12/11 04:38:07;;;;;;;25.27;7.20;;;10.70;99.90;;;;;;5120286;28;20188;-60
2023/12/11 04:40:33;;;;;;;24.67;7.22;;;10.70;99.90;;;;;;5118824;28;20173;-60
2023/12/11 04:42:58;;;;;;;26.92;6.40;;;10.70;99.90;;;;;;5116744;28;20188;-60
2023/12/11 04:45:24;;;;;;;28.75;5.43;;;10.70;99.90;;;;;;5117111;28;20169;-59
2023/12/11 04:47:50;;;;;;;29.67;8.38;;;10.80;99.90;;;;;;5116764;28;20197;-59
2023/12/11 04:50:15;;;;;;;26.98;7.80;;;10.70;99.90;;;;;;5116519;28;20690;-59
2023/12/11 04:52:41;;;;;;;25.27;7.60;;;10.80;99.90;;;;;;5117050;28;20622;-60
2023/12/11 04:55:07;;;;;;;28.40;6.82;;;10.70;99.90;;;;;;5116694;28;20180;-60
2023/12/11 04:57:32;;;;;;;27.17;7.72;;;10.80;99.90;;;;;;5115441;28;20276;-60
2023/12/11 04:59:58;;;;;;;27.10;6.57;;;10.70;99.90;;;;;;5116546;28;20218;-60
2023/12/11 05:02:24;;;;;;;25.58;6.07;;;10.80;99.90;;;;;;5116291;28;20264;-60
2023/12/11 05:04:49;;;;;;;27.42;5.68;;;10.80;99.90;;;;;;5116419;28;20225;-60
2023/12/11 05:07:15;;;;;;;23.88;5.60;;;10.80;99.90;;;;;;5116337;28;20228;-59
2023/12/11 05:09:41;;;;;;;25.05;6.40;;;10.70;99.90;;;;;;5116465;28;20165;-60
2023/12/11 05:12:07;;;;;;;23.80;6.82;;;10.80;99.90;;;;;;5116423;28;20625;-60
2023/12/11 05:14:32;;;;;;;23.35;6.40;;;10.80;99.90;;;;;;5116267;28;20526;-59
2023/12/11 05:16:58;;;;;;;24.90;6.57;;;10.90;99.90;;;;;;5116240;28;20174;-60
2023/12/11 05:19:24;;;;;;;24.92;5.25;;;10.80;99.90;;;;;;5116266;28;20252;-60
2023/12/11 05:21:49;;;;;;;24.75;6.00;;;10.80;99.90;;;;;;5116181;28;20229;-60
2023/12/11 05:24:15;;;;;;;18.83;5.07;;;10.80;99.90;;;;;;5115756;28;20185;-60
2023/12/11 05:26:41;;;;;;;18.30;5.13;;;10.70;99.90;;;;;;5116000;28;20192;-60
2023/12/11 05:29:07;;;;;;;22.45;5.35;;;10.70;99.90;;;;;;5115722;28;20181;-59
2023/12/11 05:31:33;;;;;;;22.65;5.22;;;10.70;99.90;;;;;;5116017;28;20303;-60
2023/12/11 05:33:59;;;;;;;19.38;4.55;;;10.80;99.90;;;;;;5115884;28;20169;-60
2023/12/11 05:36:25;;;;;;;19.02;4.50;;;10.80;99.90;;;;;;5115602;28;20185;-59
2023/12/11 05:38:51;;;;;;;18.98;5.53;;;10.80;99.90;;;;;;5115838;28;20227;-60
2023/12/11 05:41:17;;;;;;;16.30;4.68;;;10.80;99.90;;;;;;5115908;28;20172;-60
2023/12/11 05:43:43;;;;;;;14.55;4.88;;;10.90;99.90;;;;;;5115731;28;20238;-61
2023/12/11 05:46:09;;;;;;;18.45;4.88;;;10.80;99.90;;;;;;5115164;28;20181;-60
2023/12/11 05:48:34;;;;;;;14.40;4.65;;;10.80;99.90;;;;;;5115313;28;20193;-60
2023/12/11 05:51:00;;;;;;;13.60;3.95;;;10.80;99.90;;;;;;5115521;28;20178;-59
2023/12/11 05:53:26;;;;;;;16.42;4.40;;;11.00;99.90;;;;;;5114097;28;20178;-60
2023/12/11 05:55:51;;;;;;;18.13;4.10;;;11.00;99.90;;;;;;5115773;28;20618;-60
2023/12/11 05:58:17;;;;;;;16.88;4.63;;;11.00;99.90;;;;;;5115501;28;20180;-60
2023/12/11 06:00:44;;;;;;;12.60;4.47;;;11.00;99.90;;;;;;5115348;28;20677;-60
2023/12/11 06:03:10;;;;;;;11.70;4.20;;;11.00;99.90;;;;;;5115077;28;20546;-60
2023/12/11 06:05:36;;;;;;;12.07;4.32;;;11.00;99.90;;;;;;5114927;28;20170;-60
2023/12/11 06:08:02;;;;;;;15.30;4.18;;;11.10;99.90;;;;;;5115248;28;20193;-60
2023/12/11 06:10:28;;;;;;;16.50;4.97;;;11.00;99.90;;;;;;5115222;28;20200;-60
2023/12/11 06:12:53;;;;;;;13.75;4.10;;;11.10;99.90;;;;;;5114881;27;20623;-60
2023/12/11 06:15:19;;;;;;;16.50;4.20;;;11.10;99.90;;;;;;5114804;28;20268;-60
2023/12/11 06:17:45;;;;;;;16.02;4.28;;;11.10;99.90;;;;;;5115087;28;20265;-61
2023/12/11 06:20:11;;;;;;;16.98;4.47;;;11.10;99.90;;;;;;5114981;28;20173;-60
2023/12/11 06:22:36;;;;;;;13.30;4.45;;;11.10;99.90;;;;;;5114948;28;20315;-60
2023/12/11 06:25:02;;;;;;;17.70;4.28;;;11.10;99.90;;;;;;5114923;28;20174;-60
2023/12/11 06:27:28;;;;;;;16.33;4.40;;;11.20;99.90;;;;;;5114762;28;20691;-60
2023/12/11 06:29:55;;;;;;;17.55;4.20;;;11.10;99.90;;;;;;5114879;28;20209;-60
2023/12/11 06:32:21;;;;;;;10.40;3.58;;;11.00;99.90;;;;;;5114709;28;20190;-60
2023/12/11 06:34:46;;;;;;;15.32;4.70;;;11.10;99.90;;;;;;5114745;28;20252;-60
2023/12/11 06:37:12;;;;;;;15.32;4.55;;;11.10;99.90;;;;;;5114669;28;20173;-60
2023/12/11 06:39:38;;;;;;;15.05;4.07;;;11.10;99.90;;;;;;5114358;28;20256;-60
2023/12/11 06:42:04;;;;;;;20.70;5.03;;;11.10;99.90;;;;;;5114726;28;20174;-60
2023/12/11 06:44:30;;;;;;;15.95;4.90;;;11.00;99.90;;;;;;5114205;28;20596;-60
2023/12/11 06:46:56;;;;;;;18.23;5.13;;;11.00;99.90;;;;;;5114406;28;20165;-60
2023/12/11 06:49:22;;;;;;;16.30;5.05;;;11.00;99.90;;;;;;5114469;28;20185;-60
2023/12/11 06:51:49;;;;;;;19.63;5.18;;;11.00;99.90;;;;;;5114475;28;20173;-60
2023/12/11 06:54:15;;;;;;;13.50;5.20;;;11.20;99.90;;;;;;5114347;28;20173;-60
2023/12/11 06:56:41;;;;;;;18.88;5.07;;;11.20;99.90;;;;;;5114371;28;20169;-60
2023/12/11 06:59:07;;;;;;;16.50;4.65;;;11.20;99.90;;;;;;5114554;28;20199;-60
2023/12/11 07:01:34;;;;;;;16.80;4.93;;;11.10;99.90;;;;;;5114307;28;20205;-61
2023/12/11 07:04:01;;;;;;;15.27;4.97;;;11.20;99.90;;;;;;5113892;28;20177;-61
2023/12/11 07:06:27;;;;;;;14.23;4.45;;;11.10;99.90;;;;;;5114291;28;20201;-60
2023/12/11 07:08:52;;;;;;;16.73;4.85;;;11.20;99.90;;;;;;5114145;28;20762;-60
2023/12/11 07:11:18;;;;;;;17.70;4.18;;;11.20;99.90;;;;;;5114219;28;20687;-60
2023/12/11 07:13:45;;;;;;;12.35;3.53;;;11.10;99.90;;;;;;5114155;28;20188;-60
2023/12/11 07:16:11;;;;;;;14.05;3.80;;;11.10;99.90;;;;;;5114100;28;20169;-61
2023/12/11 07:18:39;;;;;;;17.73;4.60;;;11.10;99.90;;;;;;5113975;28;20179;-61
2023/12/11 07:21:09;;;;;;;14.23;4.38;;;11.10;99.90;;;;;;5114055;28;20618;-60
2023/12/11 07:23:35;;;;;;;12.77;3.60;;;11.30;99.90;;;;;;5113660;28;20559;-60
2023/12/11 07:26:00;;;;;;;10.52;2.95;;;11.50;99.90;;;;;;5113970;28;20177;-60
2023/12/11 07:28:26;;;;;;;14.38;4.55;;;11.30;99.90;;;;;;5113896;28;20300;-60
2023/12/11 07:30:52;;;;;;;17.33;4.57;;;11.30;99.90;;;;;;5113896;28;20264;-60
2023/12/11 07:33:18;;;;;;;14.55;4.15;;;11.30;99.90;;;;;;5112744;28;20173;-60
2023/12/11 07:35:43;;;;;;;10.70;3.70;;;11.30;99.90;;;;;;5113881;28;20248;-61
2023/12/11 07:38:09;;;;;;;14.73;4.95;;;11.30;99.90;;;;;;5113886;28;20181;-61
2023/12/11 07:40:35;;;;;;;15.10;4.20;;;11.40;99.90;;;;;;5114086;28;20173;-60
2023/12/11 07:43:00;;;;;;;14.68;4.47;;;11.30;99.90;;;;;;5113836;28;20177;-60
2023/12/11 07:45:26;;;;;;;16.73;4.03;;;11.30;99.90;;;;;;5113707;28;20177;-60
2023/12/11 07:47:52;;;;;;;16.40;4.55;;;11.50;99.90;;;;;;5113404;28;20290;-60
2023/12/11 07:50:17;;;;;;;13.93;4.07;;;11.40;99.90;;;;;;5113790;28;20185;-61
2023/12/11 07:52:43;;;;;;;18.50;4.47;;;11.40;99.90;;;;;;5113774;28;20180;-60
2023/12/11 07:55:09;;;;;;;15.30;4.30;;;11.40;99.90;;;;;;5113496;28;20176;-61
2023/12/11 07:57:34;;;;;;;15.35;4.13;;;11.50;99.90;;;;;;5113746;28;20169;-60
2023/12/11 08:00:00;;;;;;;15.85;4.25;;;11.40;99.90;;;;;;5113626;28;20177;-60
2023/12/11 08:02:26;;;;;;;17.20;4.72;;;11.30;99.90;;;;;;5113752;28;20526;-61
2023/12/11 08:04:51;;;;;;;11.63;4.00;;;11.40;99.90;;;;;;5113629;28;20526;-60
2023/12/11 08:07:18;;;;;;;16.38;4.70;;;11.50;99.90;;;;;;5113572;28;20603;-60
2023/12/11 08:09:44;;;;;;;18.75;4.55;;;11.50;99.90;;;;;;5113573;28;20188;-60
2023/12/11 08:12:10;;;;;;;12.27;4.10;;;11.50;99.90;;;;;;5113274;28;20690;-61
2023/12/11 08:14:37;;;;;;;14.35;4.90;;;11.60;99.90;;;;;;5113567;28;20157;-61
2023/12/11 08:17:04;;;;;;;15.95;4.03;;;11.50;99.90;;;;;;5115749;28;20169;-61
2023/12/11 08:19:33;;;;;;;15.70;4.15;;;11.50;99.90;;;;;;5117089;28;20534;-61
2023/12/11 08:21:58;;;;;;;12.35;3.90;;;11.50;99.90;;;;;;5117257;28;20229;-60
2023/12/11 08:24:24;;;;;;;14.00;4.50;;;11.50;99.90;;;;;;5117054;28;20173;-60
2023/12/11 08:26:50;;;;;;;13.15;4.07;;;11.60;99.90;;;;;;5117178;28;20173;-60
2023/12/11 08:29:16;;;;;;;12.38;4.18;;;11.60;99.90;;;;;;5117230;28;20216;-61
2023/12/11 08:31:43;;;;;;;16.15;4.75;;;11.60;99.90;;;;;;5117134;28;20514;-61
2023/12/11 08:34:09;;;;;;;16.08;4.53;;;11.60;99.90;;;;;;5117109;28;20181;-60
2023/12/11 08:36:34;;;;;;;14.15;4.10;;;11.50;99.90;;;;;;5117029;28;20166;-60
2023/12/11 08:39:00;;;;;;;14.38;4.18;;;11.50;99.90;;;;;;5116739;28;20576;-61
2023/12/11 08:41:26;;;;;;;9.20;3.45;;;11.60;99.90;;;;;;5116770;28;20195;-60
2023/12/11 08:43:51;;;;;;;11.38;4.15;;;11.50;99.90;;;;;;5116936;28;20205;-60
2023/12/11 08:46:17;;;;;;;12.98;3.88;;;11.50;99.90;;;;;;5116945;28;20176;-61
2023/12/11 08:48:45;;;;;;;14.18;4.10;;;11.50;99.90;;;;;;5116887;28;20209;-61
2023/12/11 08:51:11;;;;;;;14.00;4.57;;;11.50;99.90;;;;;;5116867;28;20276;-60
2023/12/11 08:53:37;;;;;;;11.27;3.70;;;11.40;99.90;;;;;;5116802;28;20633;-60
2023/12/11 08:56:03;;;;;;;12.77;3.92;;;11.40;99.90;;;;;;5116665;28;20196;-60
2023/12/11 08:58:28;;;;;;;13.75;3.75;;;11.40;99.90;;;;;;5116688;28;20216;-61
2023/12/11 09:00:54;;;;;;;11.27;3.08;;;11.40;99.90;;;;;;5116336;28;20202;-61
2023/12/11 09:03:22;;;;;;;13.95;3.75;;;11.40;99.90;;;;;;5116545;28;20176;-61
2023/12/11 09:05:48;;;;;;;12.90;3.63;;;11.50;99.90;;;;;;5116670;28;20564;-61
2023/12/11 09:08:14;;;;;;;11.57;2.95;;;11.40;99.90;;;;;;5116456;28;20229;-60
2023/12/11 09:10:40;;;;;;;13.07;3.42;;;11.40;99.90;;;;;;5116419;28;20222;-60
2023/12/11 09:13:06;;;;;;;15.02;3.58;;;11.30;99.90;;;;;;5116359;28;20180;-61
2023/12/11 09:15:32;;;;;;;14.35;3.80;;;11.40;99.90;;;;;;5116353;28;20173;-60
2023/12/11 09:17:58;;;;;;;11.18;3.47;;;11.40;99.90;;;;;;5116286;28;20526;-60
2023/12/11 09:20:23;;;;;;;13.77;3.72;;;11.50;99.90;;;;;;5116282;28;20173;-61
2023/12/11 09:22:49;;;;;;;11.75;3.00;;;11.60;99.90;;;;;;5115911;28;20705;-60
2023/12/11 09:25:15;;;;;;;11.52;3.55;;;11.60;99.90;;;;;;5116146;28;20264;-60
2023/12/11 09:27:40;;;;;;;15.82;4.05;;;11.50;99.90;;;;;;5115739;28;20242;-60
2023/12/11 09:30:10;;;;;;;13.60;3.70;;;11.50;99.90;;;;;;5116073;28;20185;-61
2023/12/11 09:32:37;;;;;;;10.70;3.50;;;11.50;99.90;;;;;;5115927;28;20256;-61
2023/12/11 09:35:02;;;;;;;14.27;3.88;;;11.50;99.90;;;;;;5115886;28;20173;-61
2023/12/11 09:37:28;;;;;;;14.50;3.47;;;11.50;99.90;;;;;;5115888;28;20223;-61
2023/12/11 09:39:54;;;;;;;13.65;3.67;;;11.50;99.90;;;;;;5115888;28;20244;-61
2023/12/11 09:42:20;;;;;;;13.88;3.97;;;11.40;99.90;;;;;;5115923;28;20181;-61
2023/12/11 09:44:47;;;;;;;13.75;3.40;;;11.40;99.90;;;;;;5114518;28;20174;-60
2023/12/11 09:47:14;;;;;;;14.45;3.55;;;11.50;99.90;;;;;;5115636;28;20280;-60
2023/12/11 09:49:40;;;;;;;11.15;3.30;;;11.60;99.90;;;;;;5115628;28;20170;-61
2023/12/11 09:52:06;;;;;;;11.10;3.47;;;11.50;99.90;;;;;;5115719;28;20674;-61
2023/12/11 09:54:31;;;;;;;12.93;4.22;;;11.30;99.90;;;;;;5115504;28;20264;-61
2023/12/11 09:57:01;;;;;;;14.80;3.53;;;11.30;99.90;;;;;;5115513;28;20256;-61
2023/12/11 09:59:27;;;;;;;11.65;3.88;;;11.40;99.90;;;;;;5115459;28;20261;-61
2023/12/11 10:01:54;;;;;;;8.25;3.45;;;11.50;99.90;;;;;;5115334;28;20181;-61
2023/12/11 10:04:19;;;;;;;9.75;3.40;;;11.40;99.90;;;;;;5115386;28;20173;-61
2023/12/11 10:06:45;;;;;;;9.90;3.67;;;11.30;99.90;;;;;;5115323;28;20649;-61
2023/12/11 10:09:40;;;;;;;14.00;4.00;;;11.40;99.90;;;;;;5114893;28;20217;-61
2023/12/11 10:12:06;;;;;;;11.20;4.00;;;11.40;99.90;;;;;;5105246;28;20512;-60
2023/12/11 10:14:33;;;;;;;16.95;3.80;;;11.40;99.90;;;;;;5115156;28;20174;-60
2023/12/11 10:17:15;;;;;;;11.35;3.63;;;11.30;99.90;;;;;;5115158;28;20646;-60
2023/12/11 10:19:41;;;;;;;12.93;4.07;;;11.30;99.90;;;;;;5115104;28;20157;-60
2023/12/11 10:22:06;;;;;;;10.55;3.80;;;11.40;99.90;;;;;;5114819;28;20228;-61
2023/12/11 10:24:32;;;;;;;13.02;4.03;;;11.50;99.90;;;;;;5114978;28;20705;-60
2023/12/11 10:26:58;;;;;;;14.82;4.07;;;11.70;99.90;;;;;;5114864;28;20568;-61
2023/12/11 10:29:26;;;;;;;13.82;3.72;;;11.60;99.90;;;;;;5114853;28;20208;-60
2023/12/11 10:31:59;;;;;;;12.30;3.58;;;11.60;99.90;;;;;;5114798;28;20170;-61
2023/12/11 10:34:50;;;;;;;10.02;4.22;;;11.60;99.90;;;;;;5114859;28;20162;-60
2023/12/11 10:37:17;;;;;;;16.67;4.18;;;11.60;99.90;;;;;;5114894;28;20589;-61
2023/12/11 10:39:55;;;;;;;11.73;4.22;;;11.50;99.90;;;;;;5113987;28;20173;-62
2023/12/11 10:42:20;;;;;;;13.88;3.63;;;11.40;99.90;;;;;;5114616;28;20179;-61
2023/12/11 10:44:46;;;;;;;13.30;4.05;;;11.50;99.90;;;;;;5114624;28;20259;-61
2023/12/11 10:47:12;;;;;;;12.88;4.03;;;11.50;99.90;;;;;;5114192;28;20246;-60
2023/12/11 10:49:40;;;;;;;14.65;4.32;;;11.50;99.90;;;;;;5114544;28;20181;-60
2023/12/11 10:52:06;;;;;;;14.60;3.80;;;11.50;99.90;;;;;;5114438;28;20169;-61
2023/12/11 10:54:34;;;;;;;13.63;3.95;;;11.50;99.90;;;;;;5114461;28;20230;-61
2023/12/11 10:57:01;;;;;;;14.40;3.53;;;11.50;99.90;;;;;;5114436;28;20177;-61
2023/12/11 10:59:30;;;;;;;15.32;3.75;;;11.50;99.90;;;;;;5114417;28;20203;-61
2023/12/11 11:01:58;;;;;;;14.40;4.43;;;11.60;99.90;;;;;;5114320;28;20557;-61
2023/12/11 11:04:26;;;;;;;15.38;4.15;;;11.60;99.90;;;;;;5114223;28;20203;-60
2023/12/11 11:07:02;;;;;;;16.98;4.43;;;11.70;99.90;;;;;;5113921;28;20188;-61
2023/12/11 11:09:41;;;;;;;11.57;3.60;;;11.60;99.90;;;;;;5113966;28;20503;-60
2023/12/11 11:12:34;;;;;;;18.25;4.53;;;11.50;99.90;;;;;;5114289;28;20179;-60
2023/12/11 11:15:00;;;;;;;13.13;3.60;;;11.60;99.90;;;;;;5114232;28;20191;-60
2023/12/11 11:18:00;;;;;;;11.38;3.60;;;11.70;99.90;;;;;;5114155;28;20200;-61
2023/12/11 11:20:38;;;;;;;13.48;3.65;;;11.70;99.90;;;;;;5114053;28;20161;-61
2023/12/11 11:23:16;;;;;;;11.32;3.55;;;11.70;99.90;;;;;;5114217;28;20664;-61
2023/12/11 11:25:51;;;;;;;13.85;4.20;;;11.80;99.90;;;;;;5113958;28;20175;-61
2023/12/11 11:28:37;;;;;;;12.35;3.30;;;11.80;99.90;;;;;;5113873;28;20249;-60
2023/12/11 11:31:03;;;;;;;11.73;3.50;;;11.80;99.90;;;;;;5114307;28;20203;-60
2023/12/11 11:33:49;;;;;;;15.68;3.63;;;11.80;99.90;;;;;;5113921;28;20165;-61
2023/12/11 11:36:17;;;;;;;9.93;3.80;;;11.80;99.90;;;;;;5113879;28;20250;-60
2023/12/11 11:38:59;;;;;;;14.57;4.43;;;11.70;99.90;;;;;;5113619;28;20222;-60
2023/12/11 11:41:29;;;;;;;10.63;4.13;;;11.80;99.90;;;;;;5113948;28;20188;-60
2023/12/11 11:44:08;;;;;;;10.55;3.75;;;11.80;99.90;;;;;;5114085;28;20177;-61
2023/12/11 11:46:57;;;;;;;16.45;3.85;;;11.80;99.90;;;;;;5113890;28;20253;-60
2023/12/11 11:49:31;;;;;;;13.88;3.58;;;11.70;99.90;;;;;;5113940;28;20165;-60
2023/12/11 11:51:57;;;;;;;16.77;3.70;;;11.80;99.90;;;;;;5117712;28;20314;-60
2023/12/11 11:54:24;;;;;;;10.10;3.97;;;11.80;99.90;;;;;;5117853;28;20229;-60
2023/12/11 11:56:51;;;;;;;11.65;3.90;;;11.90;99.90;;;;;;5117800;28;20269;-60
2023/12/11 11:59:17;;;;;;;11.10;3.70;;;11.90;99.90;;;;;;5117831;28;20173;-60
2023/12/11 12:01:54;;;;;;;10.75;3.95;;;11.90;99.90;;;;;;5117787;28;20170;-61
2023/12/11 12:04:34;;;;;;;9.25;3.15;;;12.00;99.90;;;;;;5117655;28;20256;-60
2023/12/11 12:07:02;;;;;;;11.80;3.83;;;12.10;99.90;;;;;;5117857;28;20375;-60
2023/12/11 12:09:28;;;;;;;9.90;3.80;;;12.20;99.90;;;;;;5117638;28;20173;-60
2023/12/11 12:11:54;;;;;;;11.55;3.53;;;12.40;99.90;;;;;;5117535;28;20196;-60
2023/12/11 12:14:21;;;;;;;15.52;3.58;;;12.50;99.90;;;;;;5117469;28;20318;-60
2023/12/11 12:16:47;;;;;;;9.63;3.50;;;12.50;99.90;;;;;;5117798;28;20246;-60
2023/12/11 12:19:15;;;;;;;11.13;3.42;;;12.60;99.90;;;;;;5117366;28;20233;-61
2023/12/11 12:21:51;;;;;;;11.13;3.15;;;12.50;99.90;;;;;;5117058;28;20223;-60
2023/12/11 12:24:19;;;;;;;9.20;2.83;;;12.60;99.90;;;;;;5117366;28;20169;-60
2023/12/11 12:26:47;;;;;;;10.35;3.08;;;12.50;99.90;;;;;;5117350;28;20514;-60
2023/12/11 12:29:14;;;;;;;7.80;2.80;;;12.50;99.90;;;;;;5117200;28;20668;-60
2023/12/11 12:31:40;;;;;;;8.02;2.90;;;12.50;99.90;;;;;;5117146;28;20184;-60
2023/12/11 12:34:07;;;;;;;9.05;2.88;;;12.50;99.90;;;;;;5117198;28;20637;-60
2023/12/11 12:36:33;;;;;;;10.43;3.25;;;12.60;99.90;;;;;;5117068;28;20230;-61